createdAt,value
2018-11-11T00:01:06.498Z,82.90
2018-11-11T00:03:37.603Z,88.27
2018-11-11T00:06:09.252Z,79.80
2018-11-11T00:08:40.558Z,82.57
2018-11-11T00:11:12.010Z,84.37
2018-11-11T00:13:43.320Z,78.33
2018-11-11T00:16:14.628Z,83.97
2018-11-11T00:18:46.281Z,79.83
2018-11-11T00:21:17.657Z,80.23
2018-11-11T00:23:49.120Z,80.63
2018-11-11T00:26:20.559Z,78.87
2018-11-11T00:28:51.843Z,83.77
2018-11-11T00:31:23.034Z,116.13
2018-11-11T00:33:54.752Z,102.87
2018-11-11T00:36:25.909Z,84.97
2018-11-11T00:38:57.560Z,86.70
2018-11-11T00:41:28.950Z,79.00
2018-11-11T00:44:00.439Z,83.83
2018-11-11T00:46:31.928Z,81.30
2018-11-11T00:49:03.415Z,83.33
2018-11-11T00:51:34.660Z,81.37
2018-11-11T00:54:05.908Z,82.63
2018-11-11T00:56:37.211Z,84.70
2018-11-11T00:59:08.807Z,79.00
2018-11-11T01:01:40.173Z,82.10
2018-11-11T01:04:11.625Z,84.17
2018-11-11T01:06:43.059Z,82.50
2018-11-11T01:09:14.402Z,85.90
2018-11-11T01:11:45.547Z,85.60
2018-11-11T01:14:17.004Z,85.07
2018-11-11T01:16:48.546Z,84.63
2018-11-11T01:19:20.160Z,88.07
2018-11-11T01:21:51.590Z,86.97
2018-11-11T01:24:22.772Z,90.40
2018-11-11T01:26:54.310Z,87.30
2018-11-11T01:29:25.453Z,90.77
2018-11-11T01:31:57.090Z,83.93
2018-11-11T01:34:28.316Z,87.03
2018-11-11T01:36:59.775Z,89.70
2018-11-11T01:39:31.301Z,91.03
2018-11-11T01:42:02.790Z,88.53
2018-11-11T01:44:34.145Z,90.77
2018-11-11T01:47:05.296Z,94.97
2018-11-11T01:49:36.577Z,91.53
2018-11-11T01:52:08.295Z,89.60
2018-11-11T01:54:39.556Z,88.33
2018-11-11T01:57:11.148Z,91.90
2018-11-11T01:59:42.400Z,92.57
2018-11-11T02:02:13.575Z,94.07
2018-11-11T02:04:44.771Z,88.87
2018-11-11T02:07:16.256Z,89.93
2018-11-11T02:09:47.399Z,86.97
2018-11-11T02:12:18.511Z,83.63
2018-11-11T02:14:49.971Z,85.30
2018-11-11T02:17:21.117Z,86.63
2018-11-11T02:19:52.384Z,88.43
2018-11-11T02:22:23.816Z,87.63
2018-11-11T02:24:55.674Z,92.30
2018-11-11T02:27:27.063Z,87.30
2018-11-11T02:29:58.446Z,88.60
2018-11-11T02:32:29.625Z,94.90
2018-11-11T02:35:00.983Z,88.10
2018-11-11T02:37:32.427Z,89.73
2018-11-11T02:40:03.987Z,87.07
2018-11-11T02:42:35.409Z,89.00
2018-11-11T02:45:08.216Z,87.47
2018-11-11T02:47:39.621Z,87.73
2018-11-11T02:50:12.839Z,86.97
2018-11-11T02:52:44.769Z,85.17
2018-11-11T02:55:16.711Z,97.40
2018-11-11T02:57:48.368Z,87.30
2018-11-11T03:00:21.654Z,86.57
2018-11-11T03:02:53.064Z,86.37
2018-11-11T03:05:24.538Z,90.23
2018-11-11T03:07:56.072Z,81.87
2018-11-11T03:10:27.320Z,87.77
2018-11-11T03:12:58.659Z,87.03
2018-11-11T03:15:29.823Z,88.03
2018-11-11T03:18:01.320Z,90.93
2018-11-11T03:20:33.238Z,88.17
2018-11-11T03:23:04.488Z,88.00
2018-11-11T03:25:35.831Z,85.63
2018-11-11T03:28:07.339Z,87.90
2018-11-11T03:30:38.686Z,84.53
2018-11-11T03:33:09.840Z,87.40
2018-11-11T03:35:41.419Z,84.60
2018-11-11T03:38:12.660Z,86.43
2018-11-11T03:40:43.849Z,82.70
2018-11-11T03:43:15.276Z,84.47
2018-11-11T03:45:46.800Z,88.97
2018-11-11T03:48:18.365Z,92.17
2018-11-11T03:50:49.831Z,85.63
2018-11-11T03:53:21.168Z,77.50
2018-11-11T03:55:52.523Z,80.13
2018-11-11T03:58:23.808Z,84.80
2018-11-11T04:00:55.253Z,85.67
2018-11-11T04:03:26.765Z,92.87
2018-11-11T04:05:58.153Z,89.20
2018-11-11T04:08:29.680Z,79.23
2018-11-11T04:11:01.134Z,83.67
2018-11-11T04:13:32.386Z,80.83
2018-11-11T04:16:03.992Z,80.90
2018-11-11T04:18:35.160Z,83.67
2018-11-11T04:21:06.476Z,83.63
2018-11-11T04:23:38.253Z,80.07
2018-11-11T04:26:09.807Z,88.37
2018-11-11T04:28:41.160Z,82.47
2018-11-11T04:31:12.325Z,88.50
2018-11-11T04:33:43.666Z,82.70
2018-11-11T04:36:14.859Z,84.47
2018-11-11T04:38:46.248Z,80.03
2018-11-11T04:41:17.344Z,83.10
2018-11-11T04:43:48.921Z,85.17
2018-11-11T04:46:20.355Z,78.93
2018-11-11T04:48:51.601Z,90.27
2018-11-11T04:51:23.103Z,87.40
2018-11-11T04:53:54.137Z,85.57
2018-11-11T04:56:25.689Z,80.03
2018-11-11T04:58:57.022Z,78.83
2018-11-11T05:01:28.414Z,83.73
2018-11-11T05:03:59.416Z,86.17
2018-11-11T05:06:30.581Z,77.83
2018-11-11T05:09:02.208Z,81.47
2018-11-11T05:11:33.667Z,83.73
2018-11-11T05:14:05.054Z,82.13
2018-11-11T05:16:36.472Z,83.07
2018-11-11T05:19:09.623Z,82.73
2018-11-11T05:21:41.366Z,85.53
2018-11-11T05:24:12.880Z,82.07
2018-11-11T05:26:44.128Z,80.70
2018-11-11T05:29:15.508Z,77.10
2018-11-11T05:31:46.750Z,82.30
2018-11-11T05:34:18.203Z,81.60
2018-11-11T05:36:49.517Z,79.23
2018-11-11T05:39:20.733Z,84.33
2018-11-11T05:41:52.300Z,79.27
2018-11-11T05:44:23.731Z,83.37
2018-11-11T05:46:55.129Z,82.40
2018-11-11T05:49:26.256Z,84.97
2018-11-11T05:51:57.768Z,82.03
2018-11-11T05:54:29.087Z,76.00
2018-11-11T05:57:00.413Z,81.27
2018-11-11T05:59:31.832Z,74.47
2018-11-11T06:02:03.038Z,77.43
2018-11-11T06:04:34.438Z,81.13
2018-11-11T06:07:05.980Z,77.47
2018-11-11T06:09:37.416Z,81.33
2018-11-11T06:12:08.837Z,84.07
2018-11-11T06:14:40.036Z,82.90
2018-11-11T06:17:12.334Z,109.87
2018-11-11T06:19:43.680Z,79.90
2018-11-11T06:22:15.939Z,78.37
2018-11-11T06:24:47.386Z,81.43
2018-11-11T06:27:18.663Z,82.90
2018-11-11T06:29:50.182Z,94.03
2018-11-11T06:32:21.921Z,82.27
2018-11-11T06:34:53.086Z,85.20
2018-11-11T06:37:24.543Z,101.70
2018-11-11T06:39:55.818Z,91.33
2018-11-11T06:42:27.301Z,81.90
2018-11-11T06:44:58.597Z,79.73
2018-11-11T06:47:30.167Z,102.87
2018-11-11T06:50:01.854Z,86.03
2018-11-11T06:52:33.126Z,89.63
2018-11-11T06:55:04.576Z,97.70
2018-11-11T06:57:35.988Z,91.07
2018-11-11T07:00:08.565Z,82.10
2018-11-11T07:02:40.885Z,83.97
2018-11-11T07:05:12.432Z,82.47
2018-11-11T07:07:44.015Z,85.43
2018-11-11T07:10:15.912Z,84.03
2018-11-11T07:12:47.132Z,81.13
2018-11-11T07:15:18.712Z,89.40
2018-11-11T07:17:49.964Z,83.63
2018-11-11T07:20:21.348Z,86.97
2018-11-11T07:22:52.599Z,84.83
2018-11-11T07:25:23.844Z,79.60
2018-11-11T07:27:55.143Z,89.13
2018-11-11T07:30:26.551Z,80.83
2018-11-11T07:32:57.882Z,82.10
2018-11-11T07:35:29.047Z,87.03
2018-11-11T07:38:00.589Z,77.80
2018-11-11T07:40:32.137Z,80.63
2018-11-11T07:43:04.409Z,80.90
2018-11-11T07:45:35.788Z,78.37
2018-11-11T07:48:07.370Z,86.87
2018-11-11T07:50:38.780Z,83.53
2018-11-11T07:53:10.149Z,83.27
2018-11-11T07:55:41.520Z,80.67
2018-11-11T07:58:12.861Z,86.30
2018-11-11T08:00:44.264Z,80.63
2018-11-11T08:03:15.552Z,85.27
2018-11-11T08:05:47.251Z,85.20
2018-11-11T08:08:18.505Z,85.80
2018-11-11T08:11:06.046Z,83.50
2018-11-11T08:13:37.395Z,87.50
2018-11-11T08:16:08.781Z,87.43
2018-11-11T08:18:40.368Z,86.07
2018-11-11T08:21:11.513Z,85.60
2018-11-11T08:23:42.931Z,79.77
2018-11-11T08:26:14.172Z,82.40
2018-11-11T08:28:45.514Z,88.20
2018-11-11T08:31:16.869Z,90.27
2018-11-11T08:33:48.558Z,84.07
2018-11-11T08:36:19.733Z,85.43
2018-11-11T08:38:51.379Z,87.33
2018-11-11T08:41:22.653Z,90.37
2018-11-11T08:43:54.121Z,88.93
2018-11-11T08:46:25.963Z,91.47
2018-11-11T08:48:57.725Z,91.67
2018-11-11T08:51:29.368Z,87.60
2018-11-11T08:54:00.596Z,83.77
2018-11-11T08:56:32.097Z,78.33
2018-11-11T08:59:03.657Z,83.07
2018-11-11T09:01:35.110Z,82.23
2018-11-11T09:04:06.914Z,86.90
2018-11-11T09:06:38.203Z,87.60
2018-11-11T09:09:10.200Z,80.67
2018-11-11T09:11:41.898Z,86.10
2018-11-11T09:14:14.510Z,90.63
2018-11-11T09:16:46.206Z,78.80
2018-11-11T09:19:17.423Z,82.93
2018-11-11T09:21:48.865Z,84.90
2018-11-11T09:24:20.608Z,81.37
2018-11-11T09:26:53.093Z,83.60
2018-11-11T09:29:24.731Z,83.10
2018-11-11T09:31:56.065Z,76.90
2018-11-11T09:34:28.248Z,76.07
2018-11-11T09:36:59.983Z,82.30
2018-11-11T09:39:31.370Z,80.67
2018-11-11T09:42:02.669Z,86.23
2018-11-11T09:44:33.908Z,76.40
2018-11-11T09:47:05.321Z,96.90
2018-11-11T09:49:36.873Z,86.60
2018-11-11T09:52:08.698Z,87.27
2018-11-11T09:54:39.768Z,81.73
2018-11-11T09:57:11.232Z,77.07
2018-11-11T09:59:42.910Z,69.63
2018-11-11T10:02:14.385Z,79.80
2018-11-11T10:04:53.494Z,78.93
2018-11-11T10:07:31.345Z,76.20
2018-11-11T10:10:08.006Z,67.77
2018-11-11T10:12:49.720Z,64.03
2018-11-11T10:15:26.473Z,66.70
2018-11-11T10:19:04.716Z,64.30
2018-11-11T10:21:46.478Z,71.73
2018-11-11T10:24:22.989Z,70.67
2018-11-11T10:27:02.145Z,70.63
2018-11-11T10:29:46.804Z,67.63
2018-11-11T10:32:53.992Z,69.17
2018-11-11T10:35:39.940Z,69.03
2018-11-11T10:38:16.119Z,68.40
2018-11-11T10:40:51.035Z,74.10
2018-11-11T10:43:29.589Z,64.93
2018-11-11T10:47:06.734Z,59.27
2018-11-11T10:49:43.676Z,69.40
2018-11-11T10:52:15.624Z,62.90
2018-11-11T10:54:46.958Z,61.73
2018-11-11T10:57:18.665Z,59.23
2018-11-11T10:59:50.293Z,61.53
2018-11-11T11:02:26.953Z,58.33
2018-11-11T11:05:03.087Z,58.30
2018-11-11T11:07:34.911Z,64.43
2018-11-11T11:10:06.492Z,59.87
2018-11-11T11:12:38.048Z,59.33
2018-11-11T11:15:10.625Z,53.87
2018-11-11T11:17:41.745Z,61.27
2018-11-11T11:20:13.458Z,59.03
2018-11-11T11:22:45.046Z,61.30
2018-11-11T11:25:16.337Z,59.13
2018-11-11T11:27:47.536Z,65.90
2018-11-11T11:30:19.156Z,62.60
2018-11-11T11:32:50.570Z,62.83
2018-11-11T11:35:22.101Z,65.23
2018-11-11T11:37:53.576Z,59.30
2018-11-11T11:40:25.405Z,72.73
2018-11-11T11:42:56.962Z,58.93
2018-11-11T11:45:28.473Z,55.87
2018-11-11T11:47:59.840Z,60.30
2018-11-11T11:50:31.274Z,55.40
2018-11-11T11:53:02.894Z,96.93
2018-11-11T11:55:34.665Z,104.73
2018-11-11T11:58:26.372Z,78.77
2018-11-11T12:00:58.066Z,54.33
2018-11-11T12:03:29.621Z,53.67
2018-11-11T12:06:01.362Z,52.73
2018-11-11T12:08:32.854Z,54.53
2018-11-11T12:11:04.187Z,51.30
2018-11-11T12:13:35.628Z,49.63
2018-11-11T12:16:07.063Z,47.67
2018-11-11T12:18:38.557Z,48.53
2018-11-11T12:21:09.903Z,47.57
2018-11-11T12:23:41.428Z,50.47
2018-11-11T12:26:12.608Z,51.30
2018-11-11T12:28:44.124Z,42.07
2018-11-11T12:31:15.956Z,43.87
2018-11-11T12:33:47.347Z,41.63
2018-11-11T12:36:18.811Z,44.77
2018-11-11T12:38:50.031Z,47.53
2018-11-11T12:41:21.502Z,41.77
2018-11-11T12:43:53.017Z,41.33
2018-11-11T12:46:24.477Z,44.40
2018-11-11T12:48:55.662Z,45.10
2018-11-11T12:51:26.794Z,47.50
2018-11-11T12:53:58.509Z,40.83
2018-11-11T12:56:30.164Z,46.33
2018-11-11T12:59:01.745Z,43.80
2018-11-11T13:01:33.361Z,45.27
2018-11-11T13:04:04.721Z,45.70
2018-11-11T13:06:36.448Z,40.30
2018-11-11T13:09:10.623Z,40.23
2018-11-11T13:11:42.279Z,58.30
2018-11-11T13:14:13.969Z,41.83
2018-11-11T13:16:45.677Z,46.87
2018-11-11T13:19:17.061Z,56.77
2018-11-11T13:21:48.810Z,42.87
2018-11-11T13:24:20.371Z,47.00
2018-11-11T13:26:51.702Z,43.37
2018-11-11T13:29:23.196Z,46.33
2018-11-11T13:31:54.880Z,45.17
2018-11-11T13:34:26.205Z,41.73
2018-11-11T13:36:57.877Z,42.90
2018-11-11T13:39:29.327Z,42.97
2018-11-11T13:42:00.724Z,45.10
2018-11-11T13:44:32.434Z,45.17
2018-11-11T13:47:04.132Z,41.77
2018-11-11T13:49:35.490Z,43.23
2018-11-11T13:52:07.620Z,44.60
2018-11-11T13:54:38.914Z,42.67
2018-11-11T13:57:10.280Z,44.27
2018-11-11T13:59:41.923Z,57.50
2018-11-11T14:02:13.444Z,44.70
2018-11-11T14:04:45.141Z,53.57
2018-11-11T14:07:16.881Z,42.90
2018-11-11T14:09:48.314Z,41.33
2018-11-11T14:12:19.725Z,44.37
2018-11-11T14:14:51.300Z,42.40
2018-11-11T14:17:23.276Z,40.33
2018-11-11T14:19:54.803Z,41.67
2018-11-11T14:22:26.156Z,43.20
2018-11-11T14:24:57.523Z,87.03
2018-11-11T14:27:29.034Z,129.27
2018-11-11T14:30:00.424Z,86.60
2018-11-11T14:32:31.716Z,63.53
2018-11-11T14:35:02.940Z,46.97
2018-11-11T14:37:35.180Z,59.53
2018-11-11T14:40:11.148Z,54.70
2018-11-11T14:42:42.631Z,47.23
2018-11-11T14:45:15.087Z,40.67
2018-11-11T14:47:47.922Z,45.03
2018-11-11T14:50:20.016Z,40.50
2018-11-11T14:52:51.635Z,40.07
2018-11-11T14:55:24.533Z,39.90
2018-11-11T14:57:56.116Z,42.40
2018-11-11T15:00:31.982Z,59.13
2018-11-11T15:03:07.509Z,50.17
2018-11-11T15:05:38.767Z,46.20
2018-11-11T15:08:10.200Z,40.43
2018-11-11T15:10:41.498Z,42.23
2018-11-11T15:13:13.921Z,45.07
2018-11-11T15:15:45.380Z,40.33
2018-11-11T15:18:16.958Z,43.93
2018-11-11T15:20:48.462Z,42.00
2018-11-11T15:23:19.837Z,39.57
2018-11-11T15:25:51.474Z,41.30
2018-11-11T15:28:23.100Z,38.53
2018-11-11T15:30:55.077Z,37.13
2018-11-11T15:33:26.668Z,36.47
2018-11-11T15:35:57.926Z,39.23
2018-11-11T15:38:29.085Z,34.17
2018-11-11T15:41:00.592Z,36.70
2018-11-11T15:43:32.064Z,34.70
2018-11-11T15:46:03.338Z,33.97
2018-11-11T15:48:34.784Z,35.03
2018-11-11T15:51:06.365Z,31.33
2018-11-11T15:53:37.939Z,29.50
2018-11-11T15:56:09.408Z,33.33
2018-11-11T15:58:40.707Z,33.73
2018-11-11T16:01:12.349Z,31.27
2018-11-11T16:03:43.789Z,32.23
2018-11-11T16:06:15.393Z,32.37
2018-11-11T16:08:47.117Z,35.53
2018-11-11T16:11:18.553Z,35.13
2018-11-11T16:13:50.213Z,44.60
2018-11-11T16:16:21.808Z,39.40
2018-11-11T16:18:52.972Z,40.73
2018-11-11T16:21:24.582Z,35.07
2018-11-11T16:23:55.792Z,33.97
2018-11-11T16:26:27.718Z,35.93
2018-11-11T16:28:59.307Z,33.80
2018-11-11T16:31:30.845Z,71.43
2018-11-11T16:34:02.673Z,52.80
2018-11-11T16:36:34.306Z,41.03
2018-11-11T16:39:07.208Z,33.83
2018-11-11T16:41:38.647Z,36.37
2018-11-11T16:44:10.039Z,40.03
2018-11-11T16:46:41.453Z,37.37
2018-11-11T16:49:12.891Z,36.93
2018-11-11T16:51:44.396Z,35.83
2018-11-11T16:54:16.162Z,36.47
2018-11-11T16:56:47.562Z,39.03
2018-11-11T16:59:19.088Z,40.43
2018-11-11T17:01:50.613Z,43.73
2018-11-11T17:04:22.409Z,43.90
2018-11-11T17:06:53.938Z,43.70
2018-11-11T17:09:25.601Z,48.80
2018-11-11T17:11:57.186Z,50.13
2018-11-11T17:14:28.653Z,53.27
2018-11-11T17:16:59.976Z,54.60
2018-11-11T17:19:31.803Z,57.83
2018-11-11T17:22:03.637Z,67.57
2018-11-11T17:24:34.857Z,58.07
2018-11-11T17:27:06.757Z,59.47
2018-11-11T17:29:38.063Z,62.30
2018-11-11T17:32:09.920Z,63.17
2018-11-11T17:34:41.502Z,63.53
2018-11-11T17:37:13.491Z,64.73
2018-11-11T17:39:44.572Z,72.63
2018-11-11T17:42:16.938Z,65.40
2018-11-11T17:44:48.639Z,69.47
2018-11-11T17:47:20.323Z,69.27
2018-11-11T17:49:51.881Z,67.53
2018-11-11T17:52:23.496Z,69.90
2018-11-11T17:54:54.705Z,74.60
2018-11-11T17:57:26.084Z,79.90
2018-11-11T17:59:57.633Z,67.47
2018-11-11T18:02:29.884Z,66.20
2018-11-11T18:05:01.606Z,69.90
2018-11-11T18:07:33.047Z,66.60
2018-11-11T18:10:04.890Z,75.93
2018-11-11T18:12:36.926Z,67.93
2018-11-11T18:15:09.079Z,73.10
2018-11-11T18:17:40.777Z,69.63
2018-11-11T18:20:15.980Z,71.07
2018-11-11T18:22:47.933Z,63.77
2018-11-11T18:25:19.772Z,71.43
2018-11-11T18:27:51.135Z,71.27
2018-11-11T18:30:27.365Z,67.63
2018-11-11T18:32:58.849Z,70.07
2018-11-11T18:35:30.640Z,88.53
2018-11-11T18:38:01.929Z,74.93
2018-11-11T18:40:33.277Z,75.70
2018-11-11T18:43:04.867Z,71.87
2018-11-11T18:45:36.440Z,74.40
2018-11-11T18:48:08.219Z,76.20
2018-11-11T18:50:40.315Z,100.57
2018-11-11T18:53:11.614Z,80.17
2018-11-11T18:55:42.941Z,103.77
2018-11-11T18:58:14.585Z,118.80
2018-11-11T19:00:46.349Z,75.80
2018-11-11T19:03:18.079Z,85.20
2018-11-11T19:09:40.058Z,74.97
2018-11-11T19:12:11.626Z,77.37
2018-11-11T19:14:43.064Z,68.83
2018-11-11T19:17:14.388Z,70.00
2018-11-11T19:19:46.064Z,67.47
2018-11-11T19:22:17.652Z,66.37
2018-11-11T19:24:51.837Z,67.93
2018-11-11T19:27:25.539Z,67.10
2018-11-11T19:29:59.179Z,68.20
2018-11-11T19:32:32.364Z,68.97
2018-11-11T19:35:06.292Z,68.67
2018-11-11T19:37:37.682Z,80.93
2018-11-11T19:40:17.212Z,68.77
2018-11-11T19:42:49.072Z,66.03
2018-11-11T19:45:21.914Z,66.03
2018-11-11T19:47:53.369Z,68.97
2018-11-11T19:50:25.796Z,71.57
2018-11-11T19:52:58.090Z,69.17
2018-11-11T19:55:29.753Z,66.70
2018-11-11T19:58:01.347Z,69.83
2018-11-11T20:00:33.520Z,137.30
2018-11-11T20:03:05.700Z,98.80
2018-11-11T20:05:37.504Z,66.70
2018-11-11T20:08:09.376Z,68.03
2018-11-11T20:10:41.095Z,67.70
2018-11-11T20:13:12.825Z,73.97
2018-11-11T20:15:44.533Z,67.77
2018-11-11T20:18:16.047Z,71.10
2018-11-11T20:20:47.466Z,67.23
2018-11-11T20:23:18.902Z,67.87
2018-11-11T20:25:50.202Z,68.40
2018-11-11T20:28:21.762Z,63.90
2018-11-11T20:30:53.134Z,70.23
2018-11-11T20:33:24.406Z,67.17
2018-11-11T20:35:55.713Z,69.07
2018-11-11T20:38:26.937Z,71.43
2018-11-11T20:40:58.305Z,69.63
2018-11-11T20:43:29.644Z,77.63
2018-11-11T20:46:01.084Z,72.20
2018-11-11T20:48:32.925Z,70.80
2018-11-11T20:51:04.656Z,73.23
2018-11-11T20:53:36.216Z,75.50
2018-11-11T20:56:08.160Z,88.83
2018-11-11T20:58:42.111Z,79.80
2018-11-11T21:01:14.119Z,70.13
2018-11-11T21:03:45.349Z,66.43
2018-11-11T21:06:16.955Z,66.80
2018-11-11T21:08:48.447Z,63.63
2018-11-11T21:11:20.147Z,66.70
2018-11-11T21:13:51.701Z,60.80
2018-11-11T21:16:23.325Z,62.67
2018-11-11T21:18:54.904Z,70.00
2018-11-11T21:21:26.306Z,64.07
2018-11-11T21:23:58.478Z,64.30
2018-11-11T21:26:30.326Z,69.43
2018-11-11T21:29:01.879Z,71.47
2018-11-11T21:31:33.252Z,101.60
2018-11-11T21:34:04.449Z,80.33
2018-11-11T21:36:35.970Z,67.17
2018-11-11T21:39:12.415Z,79.23
2018-11-11T21:41:43.995Z,65.73
2018-11-11T21:44:15.138Z,71.90
2018-11-11T21:46:46.937Z,66.70
2018-11-11T21:49:18.818Z,78.17
2018-11-11T21:51:50.134Z,60.23
2018-11-11T21:54:21.538Z,70.40
2018-11-11T21:56:53.111Z,67.97
2018-11-11T21:59:24.424Z,73.07
2018-11-11T22:01:55.700Z,64.87
2018-11-11T22:04:27.108Z,77.50
2018-11-11T22:06:58.910Z,67.23
2018-11-11T22:09:30.483Z,65.13
2018-11-11T22:12:02.194Z,66.93
2018-11-11T22:14:33.384Z,60.83
2018-11-11T22:17:04.916Z,67.07
2018-11-11T22:19:36.170Z,65.60
2018-11-11T22:22:07.679Z,64.90
2018-11-11T22:24:39.127Z,62.20
2018-11-11T22:27:10.452Z,66.33
2018-11-11T22:29:41.903Z,61.60
2018-11-11T22:32:13.344Z,64.87
2018-11-11T22:34:44.691Z,68.13
2018-11-11T22:37:15.915Z,82.87
2018-11-11T22:39:47.620Z,67.03
2018-11-11T22:42:19.124Z,63.70
2018-11-11T22:44:50.303Z,60.83
2018-11-11T22:47:21.697Z,61.60
2018-11-11T22:49:53.128Z,60.40
2018-11-11T22:52:24.626Z,62.93
2018-11-11T22:54:56.339Z,83.87
2018-11-11T22:57:27.762Z,106.37
2018-11-11T22:59:59.079Z,62.93
2018-11-11T23:02:30.648Z,61.00
2018-11-11T23:05:02.268Z,67.53
2018-11-11T23:07:33.657Z,66.77
2018-11-11T23:10:05.713Z,61.17
2018-11-11T23:12:37.127Z,60.03
2018-11-11T23:15:10.278Z,61.13
2018-11-11T23:17:41.524Z,60.63
2018-11-11T23:20:15.142Z,58.63
2018-11-11T23:22:46.460Z,62.20
2018-11-11T23:25:18.733Z,68.13
2018-11-11T23:27:50.040Z,58.80
2018-11-11T23:30:22.759Z,61.37
2018-11-11T23:32:54.003Z,66.00
2018-11-11T23:35:25.305Z,60.80
2018-11-11T23:37:56.885Z,64.27
2018-11-11T23:40:28.380Z,61.50
2018-11-11T23:42:59.833Z,60.13
2018-11-11T23:45:31.135Z,58.00
2018-11-11T23:48:02.896Z,62.70
2018-11-11T23:50:34.277Z,62.63
2018-11-11T23:53:05.698Z,60.97
2018-11-11T23:55:36.836Z,61.70
2018-11-11T23:58:08.048Z,62.67
